sensor_id;sensor_type;location;lat;lon;timestamp;pressure;altitude;pressure_sealevel;temperature;humidity
43621;BME280;29213;50.770;7.298;2023-04-06T00:02:06;101028.13;;;0.64;49.00
43621;BME280;29213;50.770;7.298;2023-04-06T00:04:31;101149.03;;;1.37;48.93
43621;BME280;29213;50.770;7.298;2023-04-06T00:06:57;100916.88;;;-0.07;49.39
43621;BME280;29213;50.770;7.298;2023-04-06T00:09:22;101081.06;;;0.87;49.00
43621;BME280;29213;50.770;7.298;2023-04-06T00:11:47;101059.56;;;0.80;48.75
43621;BME280;29213;50.770;7.298;2023-04-06T00:14:13;101016.94;;;0.46;48.75
43621;BME280;29213;50.770;7.298;2023-04-06T00:16:39;101066.84;;;0.75;48.53
43621;BME280;29213;50.770;7.298;2023-04-06T00:19:04;100934.25;;;-0.06;48.41
43621;BME280;29213;50.770;7.298;2023-04-06T00:21:30;101029.59;;;0.54;48.42
43621;BME280;29213;50.770;7.298;2023-04-06T00:23:56;100985.69;;;0.27;48.82
43621;BME280;29213;50.770;7.298;2023-04-06T00:26:21;100821.91;;;-0.74;49.01
43621;BME280;29213;50.770;7.298;2023-04-06T00:28:47;100998.69;;;0.28;49.22
43621;BME280;29213;50.770;7.298;2023-04-06T00:31:12;100961.19;;;0.12;49.51
43621;BME280;29213;50.770;7.298;2023-04-06T00:33:37;101019.44;;;0.48;49.69
43621;BME280;29213;50.770;7.298;2023-04-06T00:36:03;101064.31;;;0.74;49.23
43621;BME280;29213;50.770;7.298;2023-04-06T00:38:28;101093.13;;;0.90;49.90
43621;BME280;29213;50.770;7.298;2023-04-06T00:40:54;100987.78;;;0.20;50.01
43621;BME280;29213;50.770;7.298;2023-04-06T00:43:19;101007.97;;;0.34;50.22
43621;BME280;29213;50.770;7.298;2023-04-06T00:45:45;100901.75;;;-0.34;50.25
43621;BME280;29213;50.770;7.298;2023-04-06T00:48:10;101122.66;;;0.93;50.08
43621;BME280;29213;50.770;7.298;2023-04-06T00:50:36;100977.06;;;0.09;49.75
43621;BME280;29213;50.770;7.298;2023-04-06T00:53:01;100944.06;;;-0.10;50.26
43621;BME280;29213;50.770;7.298;2023-04-06T00:55:28;101106.59;;;0.84;50.30
43621;BME280;29213;50.770;7.298;2023-04-06T00:57:54;101045.91;;;0.43;50.49
43621;BME280;29213;50.770;7.298;2023-04-06T01:00:20;101091.97;;;0.79;50.15
43621;BME280;29213;50.770;7.298;2023-04-06T01:02:46;101101.59;;;0.79;50.22
43621;BME280;29213;50.770;7.298;2023-04-06T01:05:11;101034.94;;;0.36;50.21
43621;BME280;29213;50.770;7.298;2023-04-06T01:07:37;100923.97;;;-0.26;50.23
43621;BME280;29213;50.770;7.298;2023-04-06T01:10:03;101089.44;;;0.78;50.59
43621;BME280;29213;50.770;7.298;2023-04-06T01:12:29;100994.72;;;0.21;50.00
43621;BME280;29213;50.770;7.298;2023-04-06T01:14:54;101022.84;;;0.34;50.60
43621;BME280;29213;50.770;7.298;2023-04-06T01:17:20;101086.97;;;0.75;50.28
43621;BME280;29213;50.770;7.298;2023-04-06T01:19:46;101040.41;;;0.48;50.35
43621;BME280;29213;50.770;7.298;2023-04-06T01:22:15;101086.16;;;0.74;50.21
43621;BME280;29213;50.770;7.298;2023-04-06T01:24:41;100917.47;;;-0.34;50.17
43621;BME280;29213;50.770;7.298;2023-04-06T01:27:06;101078.53;;;0.70;50.15
43621;BME280;29213;50.770;7.298;2023-04-06T01:29:32;101069.06;;;0.67;50.35
43621;BME280;29213;50.770;7.298;2023-04-06T01:31:57;100941.69;;;-0.15;49.98
43621;BME280;29213;50.770;7.298;2023-04-06T01:34:23;101041.69;;;0.40;49.95
43621;BME280;29213;50.770;7.298;2023-04-06T01:36:48;101005.03;;;0.24;50.17
43621;BME280;29213;50.770;7.298;2023-04-06T01:39:13;100905.47;;;-0.39;50.30
43621;BME280;29213;50.770;7.298;2023-04-06T01:41:39;100967.59;;;0.06;50.19
43621;BME280;29213;50.770;7.298;2023-04-06T01:44:04;100984.06;;;0.08;50.30
43621;BME280;29213;50.770;7.298;2023-04-06T01:46:30;100761.88;;;-1.25;49.78
43621;BME280;29213;50.770;7.298;2023-04-06T01:48:55;100969.63;;;0.01;50.00
43621;BME280;29213;50.770;7.298;2023-04-06T01:51:20;101004.59;;;0.16;49.95
43621;BME280;29213;50.770;7.298;2023-04-06T01:53:46;101055.13;;;0.50;49.90
43621;BME280;29213;50.770;7.298;2023-04-06T01:56:11;101035.94;;;0.34;49.93
43621;BME280;29213;50.770;7.298;2023-04-06T01:58:37;100958.16;;;-0.13;50.16
43621;BME280;29213;50.770;7.298;2023-04-06T02:01:02;100960.00;;;-0.15;49.54
43621;BME280;29213;50.770;7.298;2023-04-06T02:03:27;100999.22;;;0.19;49.60
43621;BME280;29213;50.770;7.298;2023-04-06T02:05:53;100972.09;;;0.04;49.78
43621;BME280;29213;50.770;7.298;2023-04-06T02:08:18;101042.94;;;0.49;49.75
43621;BME280;29213;50.770;7.298;2023-04-06T02:10:44;100933.41;;;-0.23;49.77
43621;BME280;29213;50.770;7.298;2023-04-06T02:13:09;100986.69;;;0.08;50.28
43621;BME280;29213;50.770;7.298;2023-04-06T02:15:34;100828.03;;;-0.91;50.03
43621;BME280;29213;50.770;7.298;2023-04-06T02:18:00;100949.28;;;-0.10;50.14
43621;BME280;29213;50.770;7.298;2023-04-06T02:20:25;100955.34;;;-0.09;49.97
43621;BME280;29213;50.770;7.298;2023-04-06T02:22:51;100919.88;;;-0.31;50.11
43621;BME280;29213;50.770;7.298;2023-04-06T02:25:16;100806.59;;;-0.98;50.18
43621;BME280;29213;50.770;7.298;2023-04-06T02:27:42;100955.22;;;-0.06;50.50
43621;BME280;29213;50.770;7.298;2023-04-06T02:30:07;100961.38;;;-0.07;50.61
43621;BME280;29213;50.770;7.298;2023-04-06T02:32:33;100858.53;;;-0.74;50.58
43621;BME280;29213;50.770;7.298;2023-04-06T02:34:58;100896.25;;;-0.62;50.93
43621;BME280;29213;50.770;7.298;2023-04-06T02:37:24;100995.66;;;0.04;50.50
43621;BME280;29213;50.770;7.298;2023-04-06T02:39:50;100842.13;;;-0.94;51.30
43621;BME280;29213;50.770;7.298;2023-04-06T02:42:15;100758.06;;;-1.52;50.65
43621;BME280;29213;50.770;7.298;2023-04-06T02:44:42;100922.50;;;-0.47;50.84
43621;BME280;29213;50.770;7.298;2023-04-06T02:47:07;100931.13;;;-0.45;50.93
43621;BME280;29213;50.770;7.298;2023-04-06T02:49:33;100907.22;;;-0.55;51.41
43621;BME280;29213;50.770;7.298;2023-04-06T02:51:59;100926.13;;;-0.50;50.88
43621;BME280;29213;50.770;7.298;2023-04-06T02:54:25;100940.22;;;-0.36;51.06
43621;BME280;29213;50.770;7.298;2023-04-06T02:56:50;100914.00;;;-0.51;50.91
43621;BME280;29213;50.770;7.298;2023-04-06T02:59:15;100984.69;;;-0.03;51.43
43621;BME280;29213;50.770;7.298;2023-04-06T03:01:41;100949.38;;;-0.28;51.62
43621;BME280;29213;50.770;7.298;2023-04-06T03:04:06;100798.34;;;-1.22;51.48
43621;BME280;29213;50.770;7.298;2023-04-06T03:06:32;100923.44;;;-0.48;51.42
43621;BME280;29213;50.770;7.298;2023-04-06T03:08:57;101010.19;;;-0.06;51.03
43621;BME280;29213;50.770;7.298;2023-04-06T03:11:23;100847.34;;;-1.10;51.25
43621;BME280;29213;50.770;7.298;2023-04-06T03:13:48;101033.25;;;-0.13;51.28
43621;BME280;29213;50.770;7.298;2023-04-06T03:16:13;100831.81;;;-1.13;50.96
43621;BME280;29213;50.770;7.298;2023-04-06T03:18:39;100953.91;;;-0.47;52.05
43621;BME280;29213;50.770;7.298;2023-04-06T03:21:05;100968.94;;;-0.35;51.92
43621;BME280;29213;50.770;7.298;2023-04-06T03:23:30;100983.03;;;-0.37;51.81
43621;BME280;29213;50.770;7.298;2023-04-06T03:25:56;100841.22;;;-1.26;51.75
43621;BME280;29213;50.770;7.298;2023-04-06T03:28:21;100824.88;;;-1.30;51.92
43621;BME280;29213;50.770;7.298;2023-04-06T03:30:46;101022.50;;;-0.08;51.77
43621;BME280;29213;50.770;7.298;2023-04-06T03:33:12;100902.78;;;-0.87;51.44
43621;BME280;29213;50.770;7.298;2023-04-06T03:35:37;100976.78;;;-0.51;52.19
43621;BME280;29213;50.770;7.298;2023-04-06T03:38:03;100867.03;;;-1.20;51.79
43621;BME280;29213;50.770;7.298;2023-04-06T03:40:30;100994.53;;;-0.40;51.89
43621;BME280;29213;50.770;7.298;2023-04-06T03:42:55;100806.34;;;-1.59;51.95
43621;BME280;29213;50.770;7.298;2023-04-06T03:45:21;101027.47;;;-0.20;52.43
43621;BME280;29213;50.770;7.298;2023-04-06T03:47:46;100785.44;;;-1.77;52.05
43621;BME280;29213;50.770;7.298;2023-04-06T03:50:12;101024.13;;;-0.22;52.10
43621;BME280;29213;50.770;7.298;2023-04-06T03:52:37;100836.88;;;-1.43;51.82
43621;BME280;29213;50.770;7.298;2023-04-06T03:55:03;100923.97;;;-0.91;52.12
43621;BME280;29213;50.770;7.298;2023-04-06T03:57:28;100951.84;;;-0.74;52.23
43621;BME280;29213;50.770;7.298;2023-04-06T03:59:54;100973.81;;;-0.61;51.70
43621;BME280;29213;50.770;7.298;2023-04-06T04:02:19;100961.63;;;-0.78;51.87
43621;BME280;29213;50.770;7.298;2023-04-06T04:04:44;100973.91;;;-0.62;52.52
43621;BME280;29213;50.770;7.298;2023-04-06T04:07:10;100932.03;;;-0.96;52.65
43621;BME280;29213;50.770;7.298;2023-04-06T04:09:36;100909.41;;;-1.13;52.53
43621;BME280;29213;50.770;7.298;2023-04-06T04:12:02;100886.81;;;-1.32;52.42
43621;BME280;29213;50.770;7.298;2023-04-06T04:14:27;100987.38;;;-0.70;52.45
43621;BME280;29213;50.770;7.298;2023-04-06T04:16:53;100939.44;;;-1.04;52.06
43621;BME280;29213;50.770;7.298;2023-04-06T04:19:18;100975.78;;;-0.82;52.06
43621;BME280;29213;50.770;7.298;2023-04-06T04:21:45;100909.94;;;-1.24;52.24
43621;BME280;29213;50.770;7.298;2023-04-06T04:24:11;101037.66;;;-0.47;52.37
43621;BME280;29213;50.770;7.298;2023-04-06T04:26:37;100933.69;;;-1.11;51.97
43621;BME280;29213;50.770;7.298;2023-04-06T04:29:03;100953.34;;;-1.04;52.56
43621;BME280;29213;50.770;7.298;2023-04-06T04:31:29;100992.31;;;-0.82;52.14
43621;BME280;29213;50.770;7.298;2023-04-06T04:33:54;100828.31;;;-1.81;52.34
43621;BME280;29213;50.770;7.298;2023-04-06T04:36:20;101020.47;;;-0.69;52.56
43621;BME280;29213;50.770;7.298;2023-04-06T04:38:45;100908.03;;;-1.38;52.28
43621;BME280;29213;50.770;7.298;2023-04-06T04:41:11;100921.31;;;-1.25;52.25
43621;BME280;29213;50.770;7.298;2023-04-06T04:43:36;100848.03;;;-1.75;52.11
43621;BME280;29213;50.770;7.298;2023-04-06T04:46:04;100845.50;;;-1.77;52.67
43621;BME280;29213;50.770;7.298;2023-04-06T04:48:29;101040.41;;;-0.50;52.20
43621;BME280;29213;50.770;7.298;2023-04-06T04:50:55;100882.22;;;-1.44;51.89
43621;BME280;29213;50.770;7.298;2023-04-06T04:53:20;101034.38;;;-0.51;52.54
43621;BME280;29213;50.770;7.298;2023-04-06T04:55:45;101037.91;;;-0.52;52.46
43621;BME280;29213;50.770;7.298;2023-04-06T04:58:11;100972.03;;;-0.94;52.40
43621;BME280;29213;50.770;7.298;2023-04-06T05:00:40;101051.13;;;-0.55;52.69
43621;BME280;29213;50.770;7.298;2023-04-06T05:03:06;100968.53;;;-1.11;52.10
43621;BME280;29213;50.770;7.298;2023-04-06T05:05:31;100963.97;;;-1.07;51.82
43621;BME280;29213;50.770;7.298;2023-04-06T05:07:57;100978.41;;;-1.00;52.10
43621;BME280;29213;50.770;7.298;2023-04-06T05:10:22;100946.53;;;-1.24;52.72
43621;BME280;29213;50.770;7.298;2023-04-06T05:12:48;100923.88;;;-1.41;52.47
43621;BME280;29213;50.770;7.298;2023-04-06T05:15:13;101033.25;;;-0.81;52.20
43621;BME280;29213;50.770;7.298;2023-04-06T05:17:39;101055.75;;;-0.60;52.53
43621;BME280;29213;50.770;7.298;2023-04-06T05:20:06;100899.13;;;-1.52;52.58
43621;BME280;29213;50.770;7.298;2023-04-06T05:22:32;100858.66;;;-1.78;52.98
43621;BME280;29213;50.770;7.298;2023-04-06T05:24:57;100666.91;;;-2.96;52.45
43621;BME280;29213;50.770;7.298;2023-04-06T05:27:22;100908.41;;;-1.46;53.05
43621;BME280;29213;50.770;7.298;2023-04-06T05:29:48;100845.81;;;-1.83;52.99
43621;BME280;29213;50.770;7.298;2023-04-06T05:32:14;100963.13;;;-1.08;52.49
43621;BME280;29213;50.770;7.298;2023-04-06T05:34:39;100841.56;;;-1.86;52.06
43621;BME280;29213;50.770;7.298;2023-04-06T05:37:05;100663.19;;;-2.90;52.39
43621;BME280;29213;50.770;7.298;2023-04-06T05:39:30;100898.88;;;-1.47;52.90
43621;BME280;29213;50.770;7.298;2023-04-06T05:41:56;100994.94;;;-0.82;52.63
43621;BME280;29213;50.770;7.298;2023-04-06T05:44:21;101048.19;;;-0.49;52.12
43621;BME280;29213;50.770;7.298;2023-04-06T05:46:47;100826.47;;;-1.79;53.09
43621;BME280;29213;50.770;7.298;2023-04-06T05:49:12;100933.00;;;-1.15;53.37
43621;BME280;29213;50.770;7.298;2023-04-06T05:51:41;100771.78;;;-2.00;64.96
43621;BME280;29213;50.770;7.298;2023-04-06T05:54:06;100946.31;;;0.59;71.27
43621;BME280;29213;50.770;7.298;2023-04-06T05:56:31;100885.66;;;1.09;58.60
43621;BME280;29213;50.770;7.298;2023-04-06T05:58:57;101042.38;;;1.80;52.97
43621;BME280;29213;50.770;7.298;2023-04-06T06:01:22;100917.41;;;0.75;51.89
43621;BME280;29213;50.770;7.298;2023-04-06T06:03:48;100964.22;;;0.81;51.47
43621;BME280;29213;50.770;7.298;2023-04-06T06:06:13;101040.75;;;1.19;51.27
43621;BME280;29213;50.770;7.298;2023-04-06T06:08:38;100916.34;;;0.33;50.80
43621;BME280;29213;50.770;7.298;2023-04-06T06:11:04;100870.03;;;0.03;50.90
43621;BME280;29213;50.770;7.298;2023-04-06T06:13:30;100889.47;;;0.14;50.65
43621;BME280;29213;50.770;7.298;2023-04-06T06:15:55;100878.16;;;-0.02;50.98
43621;BME280;29213;50.770;7.298;2023-04-06T06:18:20;101038.09;;;1.04;50.65
43621;BME280;29213;50.770;7.298;2023-04-06T06:20:46;100972.91;;;0.67;50.65
43621;BME280;29213;50.770;7.298;2023-04-06T06:23:11;100986.22;;;0.79;50.16
43621;BME280;29213;50.770;7.298;2023-04-06T06:25:37;100989.16;;;0.89;50.32
43621;BME280;29213;50.770;7.298;2023-04-06T06:28:02;100960.94;;;0.78;49.63
43621;BME280;29213;50.770;7.298;2023-04-06T06:30:28;100971.66;;;0.89;49.64
43621;BME280;29213;50.770;7.298;2023-04-06T06:32:53;101040.38;;;1.40;48.98
43621;BME280;29213;50.770;7.298;2023-04-06T06:35:19;100923.06;;;1.13;54.74
43621;BME280;29213;50.770;7.298;2023-04-06T06:37:44;100902.91;;;1.28;49.94
43621;BME280;29213;50.770;7.298;2023-04-06T06:40:10;100970.53;;;1.66;52.41
43621;BME280;29213;50.770;7.298;2023-04-06T06:42:38;100941.50;;;1.55;48.60
43621;BME280;29213;50.770;7.298;2023-04-06T06:45:06;100970.50;;;1.81;52.69
43621;BME280;29213;50.770;7.298;2023-04-06T06:47:32;101013.34;;;2.38;50.83
43621;BME280;29213;50.770;7.298;2023-04-06T06:49:57;100929.09;;;1.99;50.12
43621;BME280;29213;50.770;7.298;2023-04-06T06:52:23;100945.63;;;2.28;50.10
43621;BME280;29213;50.770;7.298;2023-04-06T06:54:49;101027.41;;;2.92;49.09
43621;BME280;29213;50.770;7.298;2023-04-06T06:57:15;101023.84;;;3.06;49.02
43621;BME280;29213;50.770;7.298;2023-04-06T06:59:40;101024.19;;;3.14;47.60
43621;BME280;29213;50.770;7.298;2023-04-06T07:02:08;100958.69;;;2.84;46.43
43621;BME280;29213;50.770;7.298;2023-04-06T07:04:34;100847.50;;;2.15;45.91
43621;BME280;29213;50.770;7.298;2023-04-06T07:07:00;100990.06;;;3.13;45.48
43621;BME280;29213;50.770;7.298;2023-04-06T07:09:26;100906.78;;;2.73;45.19
43621;BME280;29213;50.770;7.298;2023-04-06T07:11:52;100824.09;;;2.25;45.56
43621;BME280;29213;50.770;7.298;2023-04-06T07:14:17;100780.97;;;2.14;44.64
43621;BME280;29213;50.770;7.298;2023-04-06T07:16:42;100908.75;;;3.08;44.63
43621;BME280;29213;50.770;7.298;2023-04-06T07:19:10;100900.16;;;3.06;44.39
43621;BME280;29213;50.770;7.298;2023-04-06T07:21:36;101000.69;;;3.87;44.28
43621;BME280;29213;50.770;7.298;2023-04-06T07:24:01;100910.75;;;3.30;44.84
43621;BME280;29213;50.770;7.298;2023-04-06T07:26:27;100899.69;;;3.38;44.38
43621;BME280;29213;50.770;7.298;2023-04-06T07:28:52;100814.91;;;2.95;44.21
43621;BME280;29213;50.770;7.298;2023-04-06T07:31:18;100833.09;;;3.12;43.22
43621;BME280;29213;50.770;7.298;2023-04-06T07:33:43;100909.06;;;3.67;43.62
43621;BME280;29213;50.770;7.298;2023-04-06T07:36:10;100967.75;;;4.06;43.39
43621;BME280;29213;50.770;7.298;2023-04-06T07:38:35;100937.91;;;4.06;43.19
43621;BME280;29213;50.770;7.298;2023-04-06T07:41:00;100822.16;;;3.42;42.97
43621;BME280;29213;50.770;7.298;2023-04-06T07:43:29;100933.34;;;4.32;42.18
43621;BME280;29213;50.770;7.298;2023-04-06T07:45:54;100912.47;;;4.18;41.87
43621;BME280;29213;50.770;7.298;2023-04-06T07:48:22;100805.84;;;3.61;41.00
43621;BME280;29213;50.770;7.298;2023-04-06T07:50:48;100791.72;;;3.62;41.38
43621;BME280;29213;50.770;7.298;2023-04-06T07:53:13;100929.47;;;4.49;41.34
43621;BME280;29213;50.770;7.298;2023-04-06T07:55:39;100768.34;;;3.58;41.22
43621;BME280;29213;50.770;7.298;2023-04-06T07:58:04;100838.66;;;4.18;40.77
43621;BME280;29213;50.770;7.298;2023-04-06T08:00:31;100999.81;;;5.32;41.65
43621;BME280;29213;50.770;7.298;2023-04-06T08:02:56;100826.69;;;4.36;40.86
43621;BME280;29213;50.770;7.298;2023-04-06T08:05:22;100984.09;;;5.42;40.52
43621;BME280;29213;50.770;7.298;2023-04-06T08:07:47;100902.59;;;5.03;39.97
43621;BME280;29213;50.770;7.298;2023-04-06T08:10:13;100847.28;;;4.90;40.76
43621;BME280;29213;50.770;7.298;2023-04-06T08:12:38;100896.34;;;5.27;39.18
43621;BME280;29213;50.770;7.298;2023-04-06T08:15:04;100971.69;;;5.88;40.13
43621;BME280;29213;50.770;7.298;2023-04-06T08:17:31;100974.63;;;6.18;39.75
43621;BME280;29213;50.770;7.298;2023-04-06T08:19:57;100883.88;;;5.84;38.45
43621;BME280;29213;50.770;7.298;2023-04-06T08:22:22;100813.69;;;5.59;38.78
43621;BME280;29213;50.770;7.298;2023-04-06T08:24:48;100924.13;;;6.53;39.07
43621;BME280;29213;50.770;7.298;2023-04-06T08:27:13;100994.50;;;7.08;37.76
43621;BME280;29213;50.770;7.298;2023-04-06T08:29:40;100852.34;;;6.47;39.01
43621;BME280;29213;50.770;7.298;2023-04-06T08:32:05;100781.84;;;6.24;39.28
43621;BME280;29213;50.770;7.298;2023-04-06T08:34:34;100845.09;;;6.70;38.49
43621;BME280;29213;50.770;7.298;2023-04-06T08:37:00;100784.41;;;6.47;38.62
43621;BME280;29213;50.770;7.298;2023-04-06T08:39:26;100954.16;;;7.57;37.75
43621;BME280;29213;50.770;7.298;2023-04-06T08:41:53;100977.09;;;7.68;37.30
43621;BME280;29213;50.770;7.298;2023-04-06T08:44:22;100880.00;;;7.26;37.76
43621;BME280;29213;50.770;7.298;2023-04-06T08:46:47;100881.03;;;7.55;37.49
43621;BME280;29213;50.770;7.298;2023-04-06T08:49:14;100875.78;;;7.84;37.55
43621;BME280;29213;50.770;7.298;2023-04-06T08:51:41;100825.41;;;7.84;37.09
43621;BME280;29213;50.770;7.298;2023-04-06T08:54:07;100896.44;;;8.40;39.38
43621;BME280;29213;50.770;7.298;2023-04-06T08:56:33;100890.09;;;8.70;38.00
43621;BME280;29213;50.770;7.298;2023-04-06T08:58:58;100887.03;;;8.75;37.09
43621;BME280;29213;50.770;7.298;2023-04-06T09:01:27;100963.22;;;9.22;35.66
43621;BME280;29213;50.770;7.298;2023-04-06T09:03:56;100822.41;;;8.47;35.33
43621;BME280;29213;50.770;7.298;2023-04-06T09:06:22;100813.41;;;8.67;36.10
43621;BME280;29213;50.770;7.298;2023-04-06T09:08:48;100849.03;;;9.03;36.38
43621;BME280;29213;50.770;7.298;2023-04-06T09:11:14;100943.91;;;9.86;36.50
43621;BME280;29213;50.770;7.298;2023-04-06T09:16:15;100956.50;;;10.02;35.52
43621;BME280;29213;50.770;7.298;2023-04-06T09:18:41;100956.28;;;10.14;35.37
43621;BME280;29213;50.770;7.298;2023-04-06T09:21:07;100951.19;;;10.21;34.76
43621;BME280;29213;50.770;7.298;2023-04-06T09:23:34;100788.25;;;9.18;34.96
43621;BME280;29213;50.770;7.298;2023-04-06T09:26:09;100902.31;;;10.03;34.88
43621;BME280;29213;50.770;7.298;2023-04-06T09:28:48;100873.13;;;9.94;35.58
43621;BME280;29213;50.770;7.298;2023-04-06T09:31:16;100909.38;;;10.13;34.54
43621;BME280;29213;50.770;7.298;2023-04-06T09:33:44;100831.78;;;9.81;35.19
43621;BME280;29213;50.770;7.298;2023-04-06T09:36:10;100872.75;;;9.88;34.47
43621;BME280;29213;50.770;7.298;2023-04-06T09:38:56;100940.31;;;10.14;35.31
43621;BME280;29213;50.770;7.298;2023-04-06T09:41:32;100951.66;;;9.98;35.45
43621;BME280;29213;50.770;7.298;2023-04-06T09:44:11;100939.72;;;9.84;35.35
43621;BME280;29213;50.770;7.298;2023-04-06T09:46:40;100940.09;;;9.89;35.12
43621;BME280;29213;50.770;7.298;2023-04-06T09:49:07;100900.06;;;9.62;35.58
43621;BME280;29213;50.770;7.298;2023-04-06T09:52:00;100931.25;;;9.88;35.98
43621;BME280;29213;50.770;7.298;2023-04-06T09:54:29;100838.09;;;9.62;35.98
43621;BME280;29213;50.770;7.298;2023-04-06T09:57:15;100890.97;;;10.20;34.97
43621;BME280;29213;50.770;7.298;2023-04-06T10:00:05;100926.78;;;10.70;34.85
43621;BME280;29213;50.770;7.298;2023-04-06T10:08:05;100803.16;;;10.54;33.82
43621;BME280;29213;50.770;7.298;2023-04-06T10:10:32;100712.69;;;10.28;33.71
43621;BME280;29213;50.770;7.298;2023-04-06T10:12:58;100559.16;;;9.51;33.34
43621;BME280;29213;50.770;7.298;2023-04-06T10:15:24;100905.06;;;11.61;33.03
43621;BME280;29213;50.770;7.298;2023-04-06T10:17:49;100892.50;;;11.45;32.89
43621;BME280;29213;50.770;7.298;2023-04-06T10:20:22;100835.50;;;11.29;32.05
43621;BME280;29213;50.770;7.298;2023-04-06T10:23:08;100907.78;;;11.86;32.97
43621;BME280;29213;50.770;7.298;2023-04-06T10:25:35;100781.63;;;11.17;32.60
43621;BME280;29213;50.770;7.298;2023-04-06T10:28:05;100862.41;;;11.86;32.65
43621;BME280;29213;50.770;7.298;2023-04-06T10:30:33;100906.34;;;12.25;31.77
43621;BME280;29213;50.770;7.298;2023-04-06T10:32:58;100763.69;;;11.44;31.06
43621;BME280;29213;50.770;7.298;2023-04-06T10:35:24;100911.66;;;12.50;30.81
43621;BME280;29213;50.770;7.298;2023-04-06T10:38:03;100595.84;;;10.76;30.92
43621;BME280;29213;50.770;7.298;2023-04-06T10:40:28;100865.03;;;12.69;31.78
43621;BME280;29213;50.770;7.298;2023-04-06T10:43:07;100651.31;;;11.56;30.55
43621;BME280;29213;50.770;7.298;2023-04-06T10:45:33;100732.97;;;11.90;30.14
43621;BME280;29213;50.770;7.298;2023-04-06T10:47:58;100766.69;;;12.08;31.70
43621;BME280;29213;50.770;7.298;2023-04-06T10:50:24;100679.66;;;11.65;31.75
43621;BME280;29213;50.770;7.298;2023-04-06T10:53:00;100862.59;;;13.07;30.36
43621;BME280;29213;50.770;7.298;2023-04-06T10:55:29;100895.47;;;13.25;30.37
43621;BME280;29213;50.770;7.298;2023-04-06T10:57:55;100801.38;;;12.73;30.45
43621;BME280;29213;50.770;7.298;2023-04-06T11:00:21;100826.50;;;13.03;30.71
43621;BME280;29213;50.770;7.298;2023-04-06T11:02:46;100749.78;;;12.32;30.33
43621;BME280;29213;50.770;7.298;2023-04-06T11:05:12;100899.16;;;13.15;30.12
43621;BME280;29213;50.770;7.298;2023-04-06T11:07:39;100848.34;;;12.67;29.42
43621;BME280;29213;50.770;7.298;2023-04-06T11:10:05;100823.56;;;12.16;30.60
43621;BME280;29213;50.770;7.298;2023-04-06T11:12:31;100806.69;;;12.24;29.82
43621;BME280;29213;50.770;7.298;2023-04-06T11:15:01;100750.00;;;12.06;29.52
43621;BME280;29213;50.770;7.298;2023-04-06T11:17:31;100852.84;;;12.75;28.97
43621;BME280;29213;50.770;7.298;2023-04-06T11:19:57;100756.28;;;12.29;28.11
43621;BME280;29213;50.770;7.298;2023-04-06T11:22:24;100832.22;;;12.92;29.22
43621;BME280;29213;50.770;7.298;2023-04-06T11:24:49;100825.03;;;12.92;28.10
43621;BME280;29213;50.770;7.298;2023-04-06T11:27:15;100891.47;;;13.52;28.37
43621;BME280;29213;50.770;7.298;2023-04-06T11:29:41;100718.69;;;12.79;28.91
43621;BME280;29213;50.770;7.298;2023-04-06T11:32:07;100736.59;;;12.70;28.46
43621;BME280;29213;50.770;7.298;2023-04-06T11:34:38;100848.31;;;13.23;28.58
43621;BME280;29213;50.770;7.298;2023-04-06T11:37:10;100778.03;;;12.75;28.32
43621;BME280;29213;50.770;7.298;2023-04-06T11:39:47;100880.16;;;13.42;28.81
43621;BME280;29213;50.770;7.298;2023-04-06T11:42:21;100779.44;;;12.94;29.50
43621;BME280;29213;50.770;7.298;2023-04-06T11:44:50;100578.19;;;11.90;29.38
43621;BME280;29213;50.770;7.298;2023-04-06T11:47:16;100731.78;;;12.98;27.60
43621;BME280;29213;50.770;7.298;2023-04-06T11:49:43;100631.69;;;12.13;27.01
43621;BME280;29213;50.770;7.298;2023-04-06T11:52:26;100872.97;;;13.66;26.92
43621;BME280;29213;50.770;7.298;2023-04-06T11:54:53;100874.34;;;13.30;27.48
43621;BME280;29213;50.770;7.298;2023-04-06T11:57:21;100876.44;;;13.19;27.51
43621;BME280;29213;50.770;7.298;2023-04-06T11:59:51;100699.09;;;12.15;27.61
43621;BME280;29213;50.770;7.298;2023-04-06T12:02:16;100796.03;;;12.81;28.63
43621;BME280;29213;50.770;7.298;2023-04-06T12:04:43;100794.47;;;12.95;27.61
43621;BME280;29213;50.770;7.298;2023-04-06T12:07:09;100500.91;;;11.08;28.11
43621;BME280;29213;50.770;7.298;2023-04-06T12:09:34;100839.50;;;13.15;28.01
43621;BME280;29213;50.770;7.298;2023-04-06T12:12:01;100867.41;;;13.44;26.73
43621;BME280;29213;50.770;7.298;2023-04-06T12:14:26;100731.56;;;12.36;26.39
43621;BME280;29213;50.770;7.298;2023-04-06T12:16:52;100873.31;;;13.39;27.38
43621;BME280;29213;50.770;7.298;2023-04-06T12:19:17;100823.34;;;13.08;26.71
43621;BME280;29213;50.770;7.298;2023-04-06T12:21:43;100781.09;;;12.95;28.12
43621;BME280;29213;50.770;7.298;2023-04-06T12:24:08;100693.78;;;12.47;27.57
43621;BME280;29213;50.770;7.298;2023-04-06T12:26:34;100775.22;;;13.08;27.81
43621;BME280;29213;50.770;7.298;2023-04-06T12:29:00;100755.47;;;13.09;28.24
43621;BME280;29213;50.770;7.298;2023-04-06T12:31:33;100687.06;;;12.91;28.37
43621;BME280;29213;50.770;7.298;2023-04-06T12:33:59;100862.38;;;14.19;27.44
43621;BME280;29213;50.770;7.298;2023-04-06T12:36:27;100829.50;;;13.87;25.65
43621;BME280;29213;50.770;7.298;2023-04-06T12:38:52;100856.81;;;13.82;26.97
43621;BME280;29213;50.770;7.298;2023-04-06T12:41:18;100863.34;;;13.80;27.27
43621;BME280;29213;50.770;7.298;2023-04-06T12:43:44;100810.19;;;13.76;27.35
43621;BME280;29213;50.770;7.298;2023-04-06T12:46:10;100854.44;;;14.11;26.63
43621;BME280;29213;50.770;7.298;2023-04-06T12:48:36;100852.50;;;13.96;26.35
43621;BME280;29213;50.770;7.298;2023-04-06T12:51:03;100807.09;;;13.65;26.59
43621;BME280;29213;50.770;7.298;2023-04-06T12:53:29;100834.91;;;13.55;26.63
43621;BME280;29213;50.770;7.298;2023-04-06T12:55:55;100844.09;;;13.61;27.04
43621;BME280;29213;50.770;7.298;2023-04-06T12:58:24;100842.75;;;13.57;27.74
43621;BME280;29213;50.770;7.298;2023-04-06T13:00:52;100751.16;;;13.08;26.91